• Join FlightAware (Why Join?)
  • Login
  • US Flag 
02:03PM EDT


 

Airport Tracker/Info


-or-


 

Live Flight TrackerFlight Track Log ✈ SKW4728 ✈ 21-Apr-2013 ✈ KSLC - KMFR

Flight Track Log - Related Links

Times and Time Zones

All times are in EDT time to prevent confusion due to time zone crossing. See the SKW4728 flight status page for this flight to view local times or setup timezone preferences in your user account.

Time Position Orientation Groundspeed Altitude Reporting Facility
EDT Latitude Longitude Course Direction KTS MPH feet Rate Location/Type
01:27PM 40.7672 -111.9983 261° West 197 227 5,100  Level Salt Lake Center
01:28PM 40.7439 -112.0544 241° Southwest 222 255 7,300 2,100 Climbing Salt Lake Center
01:29PM 40.7619 -112.1008 297° West 240 276 8,600 2,040 Climbing Salt Lake Center
01:29PM 40.7736 -112.1406 291° West 261 300 9,400 1,560 Climbing Salt Lake Center
01:30PM 40.8240 -112.3053 294° West  Level FlightAware Approximate
01:30PM 40.7922 -112.1922 295° West 267 307 10,200  Level Salt Lake Center
01:31PM 40.8643 -112.4238 288° West  Level FlightAware Approximate
01:31PM 40.8236 -112.2864 294° West 279 321 12,400  Level Salt Lake Center
01:32PM 40.8518 -112.5525 261° West  Level FlightAware Approximate
01:32PM 40.8578 -112.3942 293° West 313 360 13,900  Level Salt Lake Center
01:33PM 40.8658 -112.5186 275° West 346 398 15,000 1,500 Climbing Salt Lake Center
01:34PM 40.8572 -112.6522 265° West 364 419 17,000 1,800 Climbing Salt Lake Center
01:35PM 40.8461 -112.7808 264° West 354 407 18,800 1,980 Climbing Salt Lake Center
01:36PM 40.8428 -112.9303 268° West 339 390 21,200 1,800 Climbing Salt Lake Center
01:37PM 40.8431 -113.0528 270° West 336 387 22,500 1,140 Climbing Salt Lake Center
01:38PM 40.8436 -113.1789 270° West 344 396 23,600 1,020 Climbing Salt Lake Center
01:39PM 40.8433 -113.3072 270° West 350 403 24,700 1,080 Climbing Salt Lake Center
01:40PM 40.8419 -113.4372 269° West 354 407 25,900 1,200 Climbing Salt Lake Center
01:41PM 40.8428 -113.5647 271° West 350 403 27,200 840 Climbing Salt Lake Center
01:42PM 40.8419 -113.6911 270° West 346 398 27,700 600 Climbing Salt Lake Center
01:43PM 40.8411 -113.8469 270° West 353 406 28,500 660 Climbing Salt Lake Center
01:44PM 40.8403 -113.9764 270° West 354 407 29,100 660 Climbing Salt Lake Center
01:45PM 40.8400 -114.1067 270° West 355 409 29,900 840 Climbing Salt Lake Center
01:46PM 40.8386 -114.2339 269° West 350 403 30,900 960 Climbing Salt Lake Center
01:47PM 40.8378 -114.3569 270° West 340 391 31,900 480 Climbing Salt Lake Center
01:48PM 40.8367 -114.4892 269° West 334 384 32,000  Climbing Salt Lake Center
01:49PM 40.8344 -114.6114 269° West 342 394 32,000  Level Salt Lake Center
01:50PM 40.8311 -114.7547 268° West 347 399 32,000  Level Salt Lake Center
01:51PM 40.8194 -114.8811 263° West 358 412 32,000  Level Salt Lake Center
01:52PM 40.8014 -115.0306 261° West 368 423 32,000  Level Salt Lake Center
01:53PM 40.7858 -115.1594 261° West 370 426 32,000  Level Salt Lake Center
01:54PM 40.7675 -115.3103 261° West 373 429 32,000  Level Salt Lake Center
01:55PM 40.7525 -115.4414 261° West 377 434 32,000  Level Salt Lake Center
01:56PM 40.7383 -115.5708 262° West 374 430 32,000  Level Salt Lake Center
01:57PM 40.7203 -115.7256 261° West 379 436 32,000  Level Salt Lake Center
01:58PM 40.7033 -115.8578 260° West 382 440 32,000  Level Salt Lake Center
01:59PM 40.6850 -116.0117 261° West 382 440 32,000  Level Salt Lake Center
02:00PM 40.6686 -116.1439 261° West 382 440 32,000  Level Salt Lake Center
02:02PM 40.6489 -116.3003 261° West 387 445 32,000  Level Salt Lake Center
02:03PM 40.6314 -116.4331 260° West 386 444 32,000  Level Salt Lake Center
02:04PM 40.6122 -116.5892 261° West 388 447 32,000  Level Salt Lake Center
02:05PM 40.5956 -116.7222 261° West 387 445 32,000  Level Salt Lake Center
02:06PM 40.5758 -116.8775 261° West 389 448 32,000  Level Salt Lake Center
02:07PM 40.5944 -117.0061 281° West 379 436 32,000  Level Salt Lake Center
02:08PM 40.6369 -117.1492 291° West 377 434 32,000  Level Salt Lake Center
02:09PM 40.6728 -117.2722 291° West 378 435 32,000  Level Salt Lake Center
02:10PM 40.7147 -117.4169 291° West 379 436 32,000  Level Salt Lake Center
02:11PM 40.7511 -117.5403 291° West 378 435 32,000  Level Salt Lake Center
02:12PM 40.7869 -117.6636 291° West 377 434 32,000  Level Salt Lake Center
02:13PM 40.8292 -117.8103 291° West 380 437 32,000  Level Salt Lake Center
02:14PM 40.8650 -117.9356 291° West 381 438 32,000  Level Salt Lake Center
02:15PM 40.9061 -118.0814 290° West 380 437 32,000  Level Salt Lake Center
02:16PM 40.9436 -118.2072 292° West 383 441 32,000  Level Salt Lake Center
02:17PM 40.9836 -118.3536 290° West 381 438 32,000  Level Salt Lake Center
02:18PM 41.0197 -118.4811 291° West 383 441 32,000  Level Salt Lake Center
02:19PM 41.0606 -118.6294 290° West 383 441 32,000  Level Salt Lake Center
02:20PM 41.0964 -118.7556 291° West 383 441 32,000  Level Salt Lake Center
02:21PM 41.1303 -118.8811 290° West 381 438 32,000  Level Salt Lake Center
02:22PM 41.1708 -119.0294 290° West 382 440 32,000  Level Salt Lake Center
02:23PM 41.2069 -119.1564 291° West 383 441 32,000  Level Salt Lake Center
02:24PM 41.2458 -119.3047 289° West 381 438 32,000  Level Salt Lake Center
02:25PM 41.2650 -119.3778 289° West 382 440 32,000  Level Seattle Center
02:26PM 41.3008 -119.5100 290° West 381 438 32,000  Level Seattle Center
02:27PM 41.3369 -119.6411 290° West 379 436 32,000  Level Seattle Center
02:28PM 41.3739 -119.7736 290° West 380 437 32,000  Level Seattle Center
02:29PM 41.4122 -119.9053 291° West 382 440 32,000  Level Seattle Center
02:30PM 41.4483 -120.0375 290° West 380 437 32,000  Level Seattle Center
02:31PM 41.4911 -120.1653 294° West 379 436 32,000  Level Seattle Center
02:32PM 41.5400 -120.2911 297° West 382 440 32,000  Level Seattle Center
02:33PM 41.5900 -120.4156 298° West 381 438 32,000  Level Seattle Center
02:34PM 41.6381 -120.5406 297° West 379 436 32,000  Level Seattle Center
02:35PM 41.6839 -120.6658 296° West 375 432 32,000  Level Seattle Center
02:36PM 41.7397 -120.8164 296° West 380 437 32,000  Level Seattle Center
02:37PM 41.7842 -120.9397 296° West 372 428 32,000  Level Seattle Center
02:38PM 41.8300 -121.0658 296° West 376 433 32,000  Level Seattle Center
02:39PM 41.8750 -121.1903 296° West 372 428 32,000 -1,020 Level Seattle Center
02:40PM 41.9208 -121.3172 296° West 376 433 30,000 -2,160 Descending Seattle Center
02:41PM 41.9664 -121.4456 296° West 381 438 27,700 -2,340 Descending Seattle Center
02:42PM 42.0100 -121.5675 296° West 363 418 25,300 -2,400 Descending Seattle Center
02:43PM 42.0522 -121.6856 296° West 351 404 22,900 -2,400 Descending Seattle Center
02:44PM 42.0928 -121.8008 295° West 344 396 20,500 -2,340 Descending Seattle Center
02:45PM 42.1328 -121.9139 296° West 345 397 18,200 -2,340 Descending Seattle Center
02:46PM 42.1806 -122.0497 295° West 345 397 15,800 -2,160 Descending Seattle Center
02:47PM 42.2197 -122.1606 296° West 332 382 13,900 -1,920 Descending Seattle Center
02:48PM 42.2600 -122.2750 295° West 338 389 12,000 -1,200 Descending Seattle Center
02:49PM 42.2925 -122.3667 296° West 264 304 11,500 -1,080 Descending Seattle Center
02:50PM 42.2869 -122.4569 265° West 256 295 9,900 -1,500 Descending Seattle Center
02:51PM 42.2431 -122.5303 231° Southwest 255 293 8,500 -1,440 Descending Seattle Center
02:52PM 42.2025 -122.6031 233° Southwest 251 289 7,000 -1,380 Descending Seattle Center
02:53PM 42.2039 -122.6872 271° West 230 265 5,800 -1,260 Descending Seattle Center
02:54PM 42.2433 -122.7683 303° West 214 246 4,500 -1,320 Descending Seattle Center